| time (UTC) | temp C | wind direction | speed KPH | gust KPH | rain 1hr cm | rain 24hr cm | rain mn cm | humidity % | barometer mb |
| 20260506044830 | 8 | 3 | 0.0 | 4.8 | 0.05 | 1.02 | 0.71 | 97 | 1003.1 |
| 20260506044326 | 8 | 345 | 1.6 | 6.4 | 0.05 | 1.02 | 0.71 | 97 | 1003.1 |
| 20260506044048 | 8 | 359 | 1.6 | 6.4 | 0.05 | 1.02 | 0.71 | 97 | 1003.1 |
| 20260506043323 | 8 | 8 | 1.6 | 8.0 | 0.08 | 1.02 | 0.71 | 97 | 1003.1 |
| 20260506042803 | 8 | 359 | 1.6 | 8.0 | 0.05 | 0.99 | 0.69 | 97 | 1003.1 |
| 20260506042232 | 8 | 25 | 1.6 | 8.0 | 0.08 | 0.99 | 0.69 | 97 | 1003.1 |
| 20260506041730 | 8 | 15 | 3.2 | 8.0 | 0.08 | 0.99 | 0.69 | 97 | 1003.1 |
| 20260506041458 | 8 | 48 | 3.2 | 6.4 | 0.10 | 0.99 | 0.69 | 97 | 1003.2 |
| 20260506041227 | 8 | 37 | 1.6 | 6.4 | 0.08 | 0.99 | 0.66 | 97 | 1003.2 |
| 20260506040230 | 8 | 51 | 1.6 | 3.2 | 0.10 | 0.99 | 0.66 | 97 | 1003.2 |
| 20260506035950 | 8 | 39 | 1.6 | 6.4 | 0.13 | 0.99 | 0.66 | 97 | 1003.2 |
| 20260506035230 | 8 | 359 | 3.2 | 3.2 | 0.13 | 0.99 | 0.66 | 97 | 1003.3 |
| 20260506034948 | 8 | 338 | 1.6 | 8.0 | 0.13 | 0.97 | 0.64 | 97 | 1003.2 |
| 20260506034219 | 8 | 15 | 1.6 | 6.4 | 0.15 | 0.97 | 0.64 | 97 | 1003.2 |
| 20260506033719 | 8 | 15 | 1.6 | 6.4 | 0.15 | 0.97 | 0.64 | 97 | 1003.3 |
| 20260506033432 | 8 | 20 | 1.6 | 6.4 | 0.15 | 0.94 | 0.61 | 97 | 1003.4 |
| 20260506032702 | 8 | 289 | 1.6 | 4.8 | 0.15 | 0.94 | 0.61 | 97 | 1003.4 |
| 20260506032202 | 8 | 19 | 1.6 | 6.4 | 0.15 | 0.91 | 0.61 | 97 | 1003.4 |
| 20260506031703 | 8 | 34 | 3.2 | 9.7 | 0.15 | 0.91 | 0.61 | 97 | 1003.3 |
| 20260506031147 | 8 | 347 | 1.6 | 9.7 | 0.15 | 0.89 | 0.58 | 97 | 1003.4 |
| 20260506030632 | 8 | 36 | 1.6 | 8.0 | 0.15 | 0.89 | 0.56 | 97 | 1003.4 |
| 20260506030130 | 8 | 13 | 3.2 | 8.0 | 0.15 | 0.89 | 0.56 | 97 | 1003.5 |
| 20260506025631 | 8 | 49 | 3.2 | 8.0 | 0.15 | 0.86 | 0.53 | 97 | 1003.6 |
| 20260506025105 | 8 | 7 | 3.2 | 9.7 | 0.15 | 0.86 | 0.53 | 97 | 1003.5 |
| 20260506024603 | 9 | 46 | 3.2 | 9.7 | 0.15 | 0.84 | 0.51 | 97 | 1003.6 |
| 20260506024032 | 9 | 0 | 3.2 | 8.0 | 0.13 | 0.81 | 0.51 | 97 | 1003.6 |
| 20260506023532 | 9 | 34 | 1.6 | 8.0 | 0.15 | 0.81 | 0.48 | 97 | 1003.6 |
| 20260506023030 | 9 | 21 | 1.6 | 4.8 | 0.13 | 0.79 | 0.48 | 97 | 1003.7 |
| 20260506022752 | 9 | 0 | 1.6 | 8.0 | 0.13 | 0.79 | 0.46 | 97 | 1003.7 |
| 20260506022032 | 9 | 1 | 3.2 | 8.0 | 0.13 | 0.79 | 0.46 | 97 | 1003.7 |
| 20260506021529 | 9 | 8 | 3.2 | 8.0 | 0.15 | 0.79 | 0.46 | 97 | 1003.7 |
| 20260506021031 | 9 | 158 | 1.6 | 8.0 | 0.13 | 0.76 | 0.43 | 97 | 1003.7 |
| 20260506020531 | 9 | 337 | 3.2 | 8.0 | 0.13 | 0.74 | 0.43 | 97 | 1003.7 |
| 20260506020005 | 9 | 323 | 3.2 | 6.4 | 0.13 | 0.74 | 0.43 | 97 | 1003.7 |
| 20260506015433 | 9 | 359 | 3.2 | 9.7 | 0.10 | 0.71 | 0.41 | 97 | 1003.7 |
| 20260506015416 | 9 | 340 | 3.2 | 8.0 | 0.10 | 0.71 | 0.38 | 97 | 1003.8 |
| 20260506014403 | 9 | 22 | 3.2 | 8.0 | 0.10 | 0.71 | 0.38 | 97 | 1003.7 |
| 20260506013902 | 9 | 359 | 1.6 | 8.0 | 0.10 | 0.71 | 0.36 | 97 | 1003.8 |
| 20260506013408 | 9 | 13 | 3.2 | 8.0 | 0.10 | 0.69 | 0.36 | 97 | 1003.8 |
| 20260506012903 | 9 | 356 | 3.2 | 8.0 | 0.08 | 0.66 | 0.33 | 97 | 1003.8 |
| 20260506012402 | 9 | 1 | 3.2 | 8.0 | 0.10 | 0.66 | 0.33 | 97 | 1003.8 |
| 20260506011831 | 9 | 326 | 3.2 | 6.4 | 0.10 | 0.66 | 0.33 | 97 | 1003.9 |
| 20260506011332 | 9 | 359 | 3.2 | 8.0 | 0.10 | 0.64 | 0.33 | 97 | 1003.9 |
| 20260506010831 | 9 | 19 | 3.2 | 8.0 | 0.13 | 0.64 | 0.33 | 97 | 1003.9 |
| 20260506010332 | 9 | 1 | 4.8 | 9.7 | 0.10 | 0.61 | 0.30 | 97 | 1003.9 |
| 20260506010248 | 9 | 58 | 3.2 | 9.7 | 0.13 | 0.61 | 0.30 | 97 | 1004.0 |
| 20260506005305 | 9 | 0 | 3.2 | 9.7 | 0.13 | 0.61 | 0.28 | 97 | 1004.0 |
| 20260506004802 | 9 | 20 | 3.2 | 9.7 | 0.10 | 0.61 | 0.28 | 97 | 1004.0 |
| 20260506004302 | 9 | 15 | 3.2 | 9.7 | 0.10 | 0.61 | 0.28 | 97 | 1004.0 |
| 20260506003804 | 9 | 345 | 3.2 | 8.0 | 0.10 | 0.58 | 0.25 | 97 | 1004.1 |
| 20260506003232 | 9 | 8 | 1.6 | 8.0 | 0.10 | 0.58 | 0.25 | 97 | 1004.1 |
| 20260506002727 | 9 | 1 | 3.2 | 8.0 | 0.10 | 0.58 | 0.23 | 97 | 1004.2 |
| 20260506002204 | 9 | 330 | 3.2 | 9.7 | 0.10 | 0.56 | 0.23 | 97 | 1004.3 |
| 20260506001642 | 9 | 19 | 3.2 | 9.7 | 0.08 | 0.53 | 0.23 | 97 | 1004.3 |
| 20260506001142 | 9 | 60 | 3.2 | 8.0 | 0.08 | 0.53 | 0.20 | 97 | 1004.4 |
| 20260506000634 | 10 | 356 | 3.2 | 8.0 | 0.08 | 0.51 | 0.20 | 97 | 1004.4 |
| 20260506000131 | 10 | 58 | 3.2 | 8.0 | 0.08 | 0.51 | 0.18 | 97 | 1004.5 |
| 20260505235602 | 10 | 8 | 3.2 | 9.7 | 0.08 | 0.51 | 0.18 | 97 | 1004.5 |
| 20260505235102 | 10 | 20 | 3.2 | 9.7 | 0.08 | 0.51 | 0.18 | 97 | 1004.5 |
| 20260505234603 | 10 | 30 | 3.2 | 9.7 | 0.10 | 0.51 | 0.18 | 97 | 1004.5 |
| 20260505234102 | 10 | 9 | 1.6 | 9.7 | 0.10 | 0.51 | 0.15 | 97 | 1004.6 |
| 20260505233602 | 10 | 359 | 1.6 | 8.0 | 0.10 | 0.48 | 0.15 | 97 | 1004.6 |
| 20260505233102 | 10 | 37 | 1.6 | 8.0 | 0.10 | 0.48 | 0.15 | 97 | 1004.6 |
| 20260505232604 | 10 | 35 | 3.2 | 11.3 | 0.10 | 0.46 | 0.15 | 97 | 1004.6 |
| 20260505232032 | 10 | 13 | 3.2 | 11.3 | 0.10 | 0.46 | 0.15 | 97 | 1004.7 |
| 20260505231532 | 10 | 30 | 3.2 | 14.5 | 0.13 | 0.46 | 0.15 | 97 | 1004.7 |
| 20260505231259 | 10 | 20 | 3.2 | 14.5 | 0.13 | 0.46 | 0.15 | 97 | 1004.7 |
| 20260505230530 | 10 | 348 | 1.6 | 8.0 | 0.13 | 0.43 | 0.13 | 97 | 1004.7 |
| 20260505230032 | 10 | 1 | 3.2 | 8.0 | 0.13 | 0.43 | 0.10 | 97 | 1004.7 |
| 20260505225754 | 10 | 126 | 3.2 | 8.0 | 0.10 | 0.43 | 0.10 | 97 | 1004.7 |
| 20260505225031 | 10 | 6 | 1.6 | 8.0 | 0.13 | 0.43 | 0.10 | 97 | 1004.8 |
| 20260505224503 | 10 | 347 | 3.2 | 8.0 | 0.10 | 0.41 | 0.08 | 97 | 1004.8 |
| 20260505224002 | 10 | 2 | 3.2 | 8.0 | 0.13 | 0.41 | 0.05 | 97 | 1004.7 |
| 20260505223430 | 10 | 43 | 1.6 | 3.2 | 0.10 | 0.38 | 0.05 | 97 | 1004.7 |
| 20260505222929 | 10 | 359 | 3.2 | 9.7 | 0.13 | 0.38 | 0.05 | 97 | 1004.8 |
| 20260505222422 | 10 | 55 | 4.8 | 9.7 | 0.10 | 0.36 | 0.05 | 97 | 1004.8 |
| 20260505221915 | 10 | 44 | 3.2 | 8.0 | 0.10 | 0.33 | 0.03 | 97 | 1004.8 |
| 20260505221404 | 10 | 91 | 1.6 | 8.0 | 0.13 | 0.33 | 0.03 | 97 | 1004.9 |
| 20260505220832 | 10 | 352 | 1.6 | 8.0 | 0.13 | 0.33 | 0.00 | 97 | 1004.8 |
| 20260505220328 | 10 | 0 | 1.6 | 8.0 | 0.13 | 0.33 | 0.00 | 97 | 1004.9 |
| 20260505215802 | 10 | 0 | 1.6 | 8.0 | 0.13 | 0.33 | 0.33 | 96 | 1004.9 |
| 20260505215305 | 10 | 1 | 1.6 | 6.4 | 0.13 | 0.30 | 0.30 | 96 | 1004.9 |
| 20260505214804 | 10 | 97 | 1.6 | 6.4 | 0.13 | 0.30 | 0.30 | 96 | 1004.9 |
| 20260505214303 | 10 | 0 | 1.6 | 6.4 | 0.15 | 0.30 | 0.28 | 96 | 1005.0 |
| 20260505213803 | 10 | 77 | 1.6 | 6.4 | 0.15 | 0.28 | 0.28 | 96 | 1005.0 |
| 20260505213525 | 10 | 344 | 1.6 | 9.7 | 0.15 | 0.28 | 0.28 | 96 | 1005.0 |
| 20260505212813 | 10 | 18 | 1.6 | 9.7 | 0.15 | 0.25 | 0.25 | 96 | 1005.0 |
| 20260505212238 | 10 | 357 | 1.6 | 6.4 | 0.13 | 0.23 | 0.23 | 96 | 1005.1 |
| 20260505211737 | 10 | 19 | 1.6 | 9.7 | 0.15 | 0.23 | 0.23 | 96 | 1005.1 |
| 20260505211207 | 10 | 1 | 1.6 | 9.7 | 0.13 | 0.23 | 0.23 | 96 | 1005.1 |
| 20260505210926 | 10 | 13 | 1.6 | 9.7 | 0.13 | 0.23 | 0.23 | 96 | 1005.2 |
| 20260505210203 | 10 | 342 | 1.6 | 9.7 | 0.13 | 0.20 | 0.20 | 96 | 1005.2 |
| 20260505205702 | 10 | 359 | 1.6 | 8.0 | 0.13 | 0.20 | 0.20 | 96 | 1005.2 |
| 20260505205208 | 10 | 102 | 1.6 | 8.0 | 0.10 | 0.18 | 0.18 | 96 | 1005.3 |
| 20260505204928 | 10 | 1 | 1.6 | 4.8 | 0.08 | 0.15 | 0.15 | 96 | 1005.3 |
| 20260505204204 | 10 | 359 | 1.6 | 8.0 | 0.08 | 0.15 | 0.15 | 96 | 1005.3 |
| 20260505203633 | 10 | 41 | 1.6 | 4.8 | 0.08 | 0.15 | 0.15 | 96 | 1005.3 |
| 20260505203131 | 10 | 354 | 1.6 | 9.7 | 0.08 | 0.15 | 0.13 | 96 | 1005.3 |
| 20260505202630 | 10 | 1 | 3.2 | 6.4 | 0.08 | 0.13 | 0.13 | 96 | 1005.3 |
| 20260505202131 | 10 | 72 | 3.2 | 12.9 | 0.05 | 0.10 | 0.10 | 96 | 1005.3 |
| 20260505201603 | 10 | 116 | 1.6 | 12.9 | 0.05 | 0.10 | 0.10 | 96 | 1005.3 |
| 20260505201030 | 10 | 83 | 1.6 | 4.8 | 0.05 | 0.10 | 0.10 | 96 | 1005.2 |
| 20260505200531 | 10 | 66 | 1.6 | 6.4 | 0.08 | 0.10 | 0.10 | 96 | 1005.2 |
| 20260505200004 | 10 | 350 | 1.6 | 4.8 | 0.05 | 0.08 | 0.08 | 96 | 1005.2 |
| 20260505195504 | 10 | 342 | 1.6 | 6.4 | 0.05 | 0.08 | 0.08 | 96 | 1005.2 |
| 20260505195002 | 10 | 349 | 1.6 | 6.4 | 0.05 | 0.08 | 0.08 | 96 | 1005.2 |
| 20260505194431 | 10 | 20 | 3.2 | 6.4 | 0.05 | 0.08 | 0.08 | 96 | 1005.2 |
| 20260505193932 | 10 | 359 | 3.2 | 8.0 | 0.05 | 0.05 | 0.05 | 95 | 1005.2 |
| 20260505193430 | 10 | 106 | 3.2 | 8.0 | 0.05 | 0.05 | 0.05 | 95 | 1005.2 |
| 20260505192929 | 10 | 349 | 3.2 | 11.3 | 0.05 | 0.05 | 0.05 | 95 | 1005.2 |
| 20260505192432 | 10 | 359 | 3.2 | 11.3 | 0.03 | 0.05 | 0.05 | 95 | 1005.1 |
| 20260505191932 | 10 | 19 | 1.6 | 9.7 | 0.03 | 0.05 | 0.05 | 95 | 1005.1 |
| 20260505191404 | 10 | 70 | 1.6 | 8.0 | 0.03 | 0.05 | 0.05 | 95 | 1005.1 |
| 20260505190904 | 10 | 308 | 3.2 | 6.4 | 0.00 | 0.03 | 0.03 | 95 | 1005.1 |
| 20260505190402 | 10 | 17 | 3.2 | 9.7 | 0.00 | 0.03 | 0.03 | 95 | 1005.1 |
| 20260505185903 | 10 | 5 | 3.2 | 9.7 | 0.00 | 0.03 | 0.03 | 95 | 1005.1 |
| 20260505185403 | 10 | 357 | 3.2 | 9.7 | 0.00 | 0.03 | 0.03 | 94 | 1005.0 |
| 20260505185123 | 11 | 343 | 3.2 | 8.0 | 0.00 | 0.03 | 0.03 | 94 | 1005.0 |
| 20260505184402 | 11 | 1 | 3.2 | 6.4 | 0.00 | 0.03 | 0.03 | 94 | 1005.0 |
| 20260505183902 | 11 | 1 | 3.2 | 9.7 | 0.00 | 0.03 | 0.03 | 94 | 1005.0 |
| 20260505183409 | 11 | 75 | 3.2 | 9.7 | 0.00 | 0.03 | 0.03 | 94 | 1005.0 |
| 20260505182837 | 11 | 4 | 3.2 | 11.3 | 0.00 | 0.03 | 0.03 | 94 | 1004.9 |
| 20260505182332 | 11 | 30 | 3.2 | 11.3 | 0.00 | 0.03 | 0.03 | 94 | 1004.9 |
| 20260505181830 | 11 | 37 | 3.2 | 8.0 | 0.00 | 0.03 | 0.03 | 94 | 1005.0 |
| 20260505181330 | 11 | 1 | 1.6 | 6.4 | 0.00 | 0.03 | 0.03 | 94 | 1005.0 |
| 20260505180832 | 11 | 50 | 1.6 | 6.4 | 0.00 | 0.03 | 0.03 | 94 | 1005.0 |
| 20260505180819 | 11 | 11 | 1.6 | 6.4 | 0.00 | 0.03 | 0.03 | 94 | 1005.1 |
| 20260505175826 | 11 | 76 | 1.6 | 6.4 | 0.00 | 0.03 | 0.03 | 94 | 1005.1 |
| 20260505175323 | 11 | 38 | 3.2 | 6.4 | 0.00 | 0.03 | 0.03 | 94 | 1005.1 |
| 20260505174820 | 11 | 83 | 3.2 | 6.4 | 0.00 | 0.03 | 0.03 | 93 | 1005.1 |
| 20260505174526 | 11 | 54 | 3.2 | 8.0 | 0.00 | 0.03 | 0.03 | 93 | 1005.1 |
| 20260505173803 | 11 | 51 | 3.2 | 9.7 | 0.00 | 0.03 | 0.03 | 93 | 1005.2 |
| 20260505173232 | 11 | 20 | 1.6 | 6.4 | 0.00 | 0.03 | 0.03 | 93 | 1005.2 |
| 20260505172951 | 11 | 32 | 1.6 | 6.4 | 0.00 | 0.03 | 0.03 | 93 | 1005.2 |
| 20260505172205 | 11 | 53 | 3.2 | 8.0 | 0.00 | 0.03 | 0.03 | 93 | 1005.2 |
| 20260505171703 | 11 | 75 | 3.2 | 8.0 | 0.00 | 0.03 | 0.03 | 93 | 1005.2 |
| 20260505171203 | 11 | 356 | 3.2 | 9.7 | 0.00 | 0.03 | 0.03 | 93 | 1005.2 |
| 20260505170704 | 11 | 15 | 3.2 | 9.7 | 0.00 | 0.03 | 0.03 | 93 | 1005.2 |
| 20260505170138 | 11 | 41 | 3.2 | 9.7 | 0.00 | 0.05 | 0.03 | 93 | 1005.2 |
| 20260505165634 | 11 | 7 | 3.2 | 9.7 | 0.00 | 0.05 | 0.03 | 93 | 1005.2 |
| 20260505165133 | 11 | 1 | 3.2 | 9.7 | 0.00 | 0.05 | 0.03 | 92 | 1005.2 |
| 20260505164632 | 11 | 27 | 3.2 | 11.3 | 0.00 | 0.05 | 0.03 | 92 | 1005.2 |
| 20260505164103 | 11 | 8 | 3.2 | 11.3 | 0.00 | 0.05 | 0.03 | 92 | 1005.2 |
| 20260505164041 | 11 | 341 | 3.2 | 9.7 | 0.00 | 0.05 | 0.03 | 92 | 1005.3 |
| 20260505163104 | 11 | 352 | 3.2 | 9.7 | 0.00 | 0.05 | 0.03 | 92 | 1005.2 |
| 20260505162533 | 11 | 60 | 1.6 | 4.8 | 0.00 | 0.05 | 0.03 | 92 | 1005.3 |
| 20260505162027 | 11 | 17 | 1.6 | 9.7 | 0.00 | 0.05 | 0.03 | 92 | 1005.3 |
| 20260505161505 | 11 | 88 | 3.2 | 9.7 | 0.00 | 0.05 | 0.03 | 92 | 1005.3 |
| 20260505161004 | 11 | 101 | 1.6 | 11.3 | 0.00 | 0.05 | 0.03 | 92 | 1005.3 |
| 20260505160652 | 11 | 67 | 3.2 | 11.3 | 0.00 | 0.05 | 0.03 | 92 | 1005.3 |
| 20260505160146 | 11 | 82 | 4.8 | 14.5 | 0.00 | 0.05 | 0.03 | 92 | 1005.2 |
| 20260505152832 | 11 | 17 | 3.2 | 11.3 | 0.00 | 0.13 | 0.03 | 91 | 1005.3 |
| 20260505152331 | 11 | 1 | 3.2 | 11.3 | 0.00 | 0.13 | 0.03 | 91 | 1005.3 |
| 20260505151830 | 11 | 359 | 3.2 | 8.0 | 0.00 | 0.13 | 0.03 | 91 | 1005.4 |
| 20260505151330 | 11 | 333 | 3.2 | 11.3 | 0.00 | 0.15 | 0.03 | 91 | 1005.4 |
| 20260505150832 | 11 | 341 | 3.2 | 11.3 | 0.00 | 0.15 | 0.03 | 91 | 1005.5 |
| 20260505150330 | 11 | 68 | 4.8 | 12.9 | 0.00 | 0.15 | 0.03 | 91 | 1005.6 |
| 20260505140459 | 12 | 1 | 4.8 | 9.7 | 0.00 | 0.15 | 0.03 | 91 | 1005.6 |
| 20260505124402 | 12 | 329 | 3.2 | 9.7 | 0.00 | 0.15 | 0.03 | 91 | 1006.2 |
| 20260505123904 | 12 | 28 | 3.2 | 11.3 | 0.00 | 0.15 | 0.03 | 92 | 1006.2 |
| 20260505123403 | 12 | 32 | 3.2 | 11.3 | 0.00 | 0.15 | 0.03 | 92 | 1006.1 |
| 20260505122830 | 12 | 0 | 3.2 | 12.9 | 0.00 | 0.15 | 0.03 | 92 | 1006.1 |
| 20260505122330 | 12 | 48 | 1.6 | 12.9 | 0.00 | 0.15 | 0.03 | 93 | 1006.2 |
| 20260505121827 | 12 | 356 | 4.8 | 14.5 | 0.00 | 0.15 | 0.03 | 93 | 1006.2 |
| 20260505121326 | 12 | 350 | 4.8 | 14.5 | 0.00 | 0.15 | 0.03 | 93 | 1006.2 |
| 20260505120805 | 12 | 359 | 4.8 | 11.3 | 0.00 | 0.15 | 0.03 | 93 | 1006.2 |
| 20260505120304 | 12 | 0 | 4.8 | 12.9 | 0.00 | 0.15 | 0.03 | 93 | 1006.3 |
| 20260505115732 | 12 | 1 | 4.8 | 12.9 | 0.00 | 0.15 | 0.03 | 93 | 1006.2 |
| 20260505115232 | 12 | 4 | 4.8 | 11.3 | 0.00 | 0.15 | 0.03 | 93 | 1006.3 |
| 20260505114730 | 12 | 77 | 4.8 | 11.3 | 0.00 | 0.15 | 0.03 | 93 | 1006.3 |
| 20260505114502 | 12 | 359 | 3.2 | 9.7 | 0.00 | 0.15 | 0.03 | 93 | 1006.3 |
| 20260505113926 | 12 | 90 | 3.2 | 11.3 | 0.00 | 0.15 | 0.03 | 94 | 1006.4 |
| 20260505113131 | 12 | 324 | 4.8 | 14.5 | 0.00 | 0.15 | 0.03 | 94 | 1006.4 |
| 20260505112852 | 12 | 0 | 4.8 | 14.5 | 0.00 | 0.15 | 0.03 | 94 | 1006.3 |
| 20260505112329 | 12 | 6 | 4.8 | 11.3 | 0.00 | 0.15 | 0.03 | 94 | 1006.3 |
| 20260505111532 | 12 | 43 | 4.8 | 12.9 | 0.00 | 0.15 | 0.03 | 94 | 1006.3 |
| 20260505111031 | 12 | 85 | 4.8 | 12.9 | 0.00 | 0.15 | 0.03 | 94 | 1006.3 |
| 20260505110532 | 12 | 37 | 3.2 | 9.7 | 0.00 | 0.15 | 0.03 | 94 | 1006.4 |
| 20260505101902 | 12 | 76 | 4.8 | 12.9 | 0.00 | 0.15 | 0.03 | 96 | 1006.6 |
| 20260505101333 | 12 | 359 | 4.8 | 12.9 | 0.00 | 0.15 | 0.03 | 96 | 1006.6 |
| 20260505100831 | 12 | 1 | 4.8 | 12.9 | 0.00 | 0.15 | 0.03 | 96 | 1006.6 |
| 20260505100313 | 12 | 335 | 4.8 | 16.1 | 0.00 | 0.15 | 0.03 | 96 | 1006.6 |
| 20260505095803 | 12 | 70 | 4.8 | 16.1 | 0.00 | 0.15 | 0.03 | 96 | 1006.6 |
| 20260505095753 | 12 | 91 | 4.8 | 14.5 | 0.00 | 0.15 | 0.03 | 96 | 1006.6 |
| 20260505094955 | 12 | 345 | 4.8 | 14.5 | 0.00 | 0.15 | 0.03 | 95 | 1006.6 |
| 20260505094231 | 12 | 316 | 3.2 | 11.3 | 0.00 | 0.15 | 0.03 | 96 | 1006.6 |
| 20260505093703 | 12 | 6 | 3.2 | 11.3 | 0.00 | 0.15 | 0.03 | 96 | 1006.6 |
| 20260505093202 | 12 | 25 | 3.2 | 11.3 | 0.00 | 0.15 | 0.03 | 96 | 1006.6 |
| 20260505092702 | 12 | 1 | 3.2 | 11.3 | 0.00 | 0.15 | 0.03 | 96 | 1006.6 |
| 20260505092202 | 12 | 352 | 3.2 | 12.9 | 0.00 | 0.15 | 0.03 | 96 | 1006.6 |
| 20260505091646 | 12 | 62 | 4.8 | 12.9 | 0.00 | 0.15 | 0.03 | 95 | 1006.6 |
| 20260505091132 | 12 | 359 | 3.2 | 11.3 | 0.00 | 0.15 | 0.03 | 95 | 1006.6 |
| 20260505090631 | 12 | 14 | 3.2 | 11.3 | 0.00 | 0.15 | 0.03 | 95 | 1006.6 |
| 20260505090326 | 12 | 42 | 4.8 | 9.7 | 0.00 | 0.15 | 0.03 | 95 | 1006.5 |
| 20260505085602 | 13 | 136 | 3.2 | 11.3 | 0.00 | 0.15 | 0.03 | 95 | 1006.6 |
| 20260505085103 | 13 | 51 | 3.2 | 11.3 | 0.00 | 0.15 | 0.03 | 95 | 1006.6 |
| 20260505084532 | 13 | 238 | 3.2 | 11.3 | 0.00 | 0.15 | 0.03 | 95 | 1006.5 |
| 20260505084242 | 13 | 4 | 4.8 | 11.3 | 0.00 | 0.15 | 0.03 | 94 | 1006.5 |
| 20260505083732 | 13 | 10 | 4.8 | 11.3 | 0.00 | 0.15 | 0.03 | 94 | 1006.5 |
| 20260505083002 | 13 | 1 | 4.8 | 11.3 | 0.00 | 0.15 | 0.03 | 94 | 1006.5 |
| 20260505082433 | 14 | 304 | 1.6 | 8.0 | 0.00 | 0.15 | 0.03 | 94 | 1006.4 |
| 20260505081931 | 14 | 127 | 1.6 | 4.8 | 0.00 | 0.15 | 0.03 | 94 | 1006.4 |
| 20260505081701 | 13 | 130 | 1.6 | 6.4 | 0.00 | 0.15 | 0.03 | 94 | 1006.4 |
| 20260505080931 | 13 | 156 | 1.6 | 6.4 | 0.00 | 0.15 | 0.03 | 94 | 1006.4 |
| 20260505080432 | 13 | 129 | 1.6 | 4.8 | 0.00 | 0.15 | 0.03 | 95 | 1006.5 |
| 20260505075904 | 13 | 150 | 1.6 | 4.8 | 0.00 | 0.15 | 0.03 | 96 | 1006.4 |
| 20260505075402 | 13 | 83 | 1.6 | 4.8 | 0.00 | 0.15 | 0.03 | 96 | 1006.4 |
| 20260505074903 | 13 | 110 | 1.6 | 3.2 | 0.00 | 0.15 | 0.03 | 97 | 1006.4 |
| 20260505074332 | 13 | 41 | 0.0 | 4.8 | 0.00 | 0.15 | 0.03 | 97 | 1006.4 |
| 20260505074056 | 13 | 81 | 0.0 | 3.2 | 0.00 | 0.15 | 0.03 | 97 | 1006.4 |
| 20260505073332 | 13 | 81 | 0.0 | 3.2 | 0.00 | 0.15 | 0.03 | 97 | 1006.5 |
| 20260505072832 | 13 | 81 | 0.0 | 3.2 | 0.00 | 0.15 | 0.03 | 98 | 1006.5 |
| 20260505072330 | 13 | 81 | 0.0 | 3.2 | 0.00 | 0.15 | 0.03 | 98 | 1006.4 |
| 20260505072048 | 13 | 81 | 0.0 | 3.2 | 0.00 | 0.15 | 0.03 | 98 | 1006.5 |
| 20260505071329 | 13 | 81 | 0.0 | 3.2 | 0.00 | 0.15 | 0.03 | 98 | 1006.5 |
| 20260505070826 | 13 | 81 | 1.6 | 3.2 | 0.00 | 0.15 | 0.03 | 98 | 1006.5 |
| 20260505070538 | 13 | 106 | 0.0 | 3.2 | 0.00 | 0.15 | 0.03 | 98 | 1006.5 |
| 20260505065814 | 13 | 90 | 0.0 | 3.2 | 0.00 | 0.15 | 0.03 | 98 | 1006.6 |
| 20260505065313 | 13 | 90 | 0.0 | 4.8 | 0.00 | 0.15 | 0.03 | 98 | 1006.6 |
| 20260505065300 | 13 | 328 | 0.0 | 4.8 | 0.00 | 0.15 | 0.03 | 98 | 1006.7 |
| 20260505064303 | 13 | 31 | 0.0 | 3.2 | 0.00 | 0.15 | 0.03 | 98 | 1006.7 |
| 20260505063731 | 13 | 31 | 0.0 | 3.2 | 0.00 | 0.15 | 0.03 | 98 | 1006.7 |
| 20260505063230 | 13 | 31 | 0.0 | 3.2 | 0.00 | 0.15 | 0.03 | 98 | 1006.7 |
| 20260505062956 | 13 | 31 | 1.6 | 3.2 | 0.00 | 0.15 | 0.03 | 98 | 1006.7 |
| 20260505062232 | 13 | 142 | 0.0 | 1.6 | 0.03 | 0.15 | 0.03 | 98 | 1006.7 |
| 20260505061730 | 13 | 185 | 0.0 | 1.6 | 0.03 | 0.15 | 0.03 | 98 | 1006.7 |
| 20260505061448 | 13 | 185 | 0.0 | 1.6 | 0.03 | 0.15 | 0.03 | 98 | 1006.8 |
| 20260505060954 | 13 | 185 | 0.0 | 1.6 | 0.03 | 0.15 | 0.03 | 98 | 1006.9 |
| 20260505060225 | 13 | 185 | 0.0 | 0.0 | 0.03 | 0.15 | 0.03 | 98 | 1006.9 |
| 20260505055722 | 13 | 185 | 0.0 | 0.0 | 0.03 | 0.15 | 0.03 | 98 | 1006.9 |
| 20260505055204 | 13 | 185 | 0.0 | 1.6 | 0.03 | 0.15 | 0.03 | 98 | 1006.9 |
| 20260505054910 | 13 | 185 | 0.0 | 1.6 | 0.03 | 0.15 | 0.03 | 98 | 1006.8 |
| 20260505054131 | 12 | 185 | 0.0 | 0.0 | 0.03 | 0.15 | 0.03 | 98 | 1006.8 |
| 20260505053632 | 12 | 185 | 0.0 | 0.0 | 0.03 | 0.15 | 0.03 | 98 | 1006.7 |
| 20260505053133 | 12 | 185 | 0.0 | 0.0 | 0.03 | 0.15 | 0.03 | 98 | 1006.7 |
| 20260505052630 | 12 | 185 | 0.0 | 0.0 | 0.03 | 0.15 | 0.03 | 98 | 1006.8 |
| 20260505052131 | 12 | 185 | 0.0 | 0.0 | 0.00 | 0.15 | 0.00 | 98 | 1006.8 |
| 20260505051827 | 12 | 185 | 0.0 | 0.0 | 0.00 | 0.15 | 0.00 | 98 | 1006.7 |
| 20260505051104 | 12 | 185 | 0.0 | 0.0 | 0.00 | 0.15 | 0.00 | 98 | 1006.7 |
| 20260505050532 | 12 | 185 | 0.0 | 0.0 | 0.00 | 0.15 | 0.00 | 98 | 1006.7 |
| 20260505050254 | 12 | 185 | 0.0 | 0.0 | 0.00 | 0.15 | 0.00 | 98 | 1006.7 |